sensor_id;sensor_type;location;lat;lon;timestamp;temperature;humidity
44886;DHT22;36669;51.428;21.162;2022-11-15T00:01:25;5.80;99.90
44886;DHT22;36669;51.428;21.162;2022-11-15T00:03:51;5.80;99.90
44886;DHT22;36669;51.428;21.162;2022-11-15T00:06:16;5.80;99.90
44886;DHT22;36669;51.428;21.162;2022-11-15T00:08:42;5.80;99.90
44886;DHT22;36669;51.428;21.162;2022-11-15T00:11:10;5.80;99.90
44886;DHT22;36669;51.428;21.162;2022-11-15T00:13:36;5.80;99.90
44886;DHT22;36669;51.428;21.162;2022-11-15T00:16:02;5.80;99.90
44886;DHT22;36669;51.428;21.162;2022-11-15T00:18:29;5.90;99.90
44886;DHT22;36669;51.428;21.162;2022-11-15T00:20:55;5.90;99.90
44886;DHT22;36669;51.428;21.162;2022-11-15T00:23:21;5.90;99.90
44886;DHT22;36669;51.428;21.162;2022-11-15T00:25:46;5.90;99.90
44886;DHT22;36669;51.428;21.162;2022-11-15T00:28:12;5.90;99.90
44886;DHT22;36669;51.428;21.162;2022-11-15T00:30:37;5.90;99.90
44886;DHT22;36669;51.428;21.162;2022-11-15T00:33:04;5.90;99.90
44886;DHT22;36669;51.428;21.162;2022-11-15T00:35:34;5.90;99.90
44886;DHT22;36669;51.428;21.162;2022-11-15T00:38:00;5.90;99.90
44886;DHT22;36669;51.428;21.162;2022-11-15T00:40:26;5.90;99.90
44886;DHT22;36669;51.428;21.162;2022-11-15T00:42:51;5.90;99.90
44886;DHT22;36669;51.428;21.162;2022-11-15T00:45:17;5.90;99.90
44886;DHT22;36669;51.428;21.162;2022-11-15T00:47:45;5.80;99.90
44886;DHT22;36669;51.428;21.162;2022-11-15T00:50:11;5.80;99.90
44886;DHT22;36669;51.428;21.162;2022-11-15T00:52:36;5.80;99.90
44886;DHT22;36669;51.428;21.162;2022-11-15T00:55:02;5.80;99.90
44886;DHT22;36669;51.428;21.162;2022-11-15T00:57:27;5.70;99.90
44886;DHT22;36669;51.428;21.162;2022-11-15T00:59:53;5.70;99.90
44886;DHT22;36669;51.428;21.162;2022-11-15T01:02:18;5.70;99.90
44886;DHT22;36669;51.428;21.162;2022-11-15T01:04:44;5.70;99.90
44886;DHT22;36669;51.428;21.162;2022-11-15T01:07:10;5.70;99.90
44886;DHT22;36669;51.428;21.162;2022-11-15T01:09:35;5.70;99.90
44886;DHT22;36669;51.428;21.162;2022-11-15T01:12:01;5.60;99.90
44886;DHT22;36669;51.428;21.162;2022-11-15T01:14:26;5.60;99.90
44886;DHT22;36669;51.428;21.162;2022-11-15T01:16:52;5.60;99.90
44886;DHT22;36669;51.428;21.162;2022-11-15T01:19:17;5.60;99.90
44886;DHT22;36669;51.428;21.162;2022-11-15T01:21:43;5.50;99.90
44886;DHT22;36669;51.428;21.162;2022-11-15T01:24:13;5.40;99.90
44886;DHT22;36669;51.428;21.162;2022-11-15T01:26:39;5.30;99.90
44886;DHT22;36669;51.428;21.162;2022-11-15T01:29:04;5.30;99.90
44886;DHT22;36669;51.428;21.162;2022-11-15T01:31:30;5.40;99.90
44886;DHT22;36669;51.428;21.162;2022-11-15T01:33:55;5.40;99.90
44886;DHT22;36669;51.428;21.162;2022-11-15T01:36:21;5.30;99.90
44886;DHT22;36669;51.428;21.162;2022-11-15T01:38:53;5.20;99.90
44886;DHT22;36669;51.428;21.162;2022-11-15T01:41:22;5.20;99.90
44886;DHT22;36669;51.428;21.162;2022-11-15T01:43:53;5.20;99.90
44886;DHT22;36669;51.428;21.162;2022-11-15T01:46:34;5.20;99.90
44886;DHT22;36669;51.428;21.162;2022-11-15T01:49:03;5.10;99.90
44886;DHT22;36669;51.428;21.162;2022-11-15T01:51:33;5.10;99.90
44886;DHT22;36669;51.428;21.162;2022-11-15T01:54:04;5.10;99.90
44886;DHT22;36669;51.428;21.162;2022-11-15T01:56:35;5.10;99.90
44886;DHT22;36669;51.428;21.162;2022-11-15T01:59:04;5.10;99.90
44886;DHT22;36669;51.428;21.162;2022-11-15T02:01:32;5.10;99.90
44886;DHT22;36669;51.428;21.162;2022-11-15T02:04:01;5.10;99.90
44886;DHT22;36669;51.428;21.162;2022-11-15T02:06:29;5.10;99.90
44886;DHT22;36669;51.428;21.162;2022-11-15T02:08:56;5.10;99.90
44886;DHT22;36669;51.428;21.162;2022-11-15T02:11:22;5.20;99.90
44886;DHT22;36669;51.428;21.162;2022-11-15T02:13:49;5.20;99.90
44886;DHT22;36669;51.428;21.162;2022-11-15T02:24:56;5.20;99.90
44886;DHT22;36669;51.428;21.162;2022-11-15T02:33:00;5.10;99.90
44886;DHT22;36669;51.428;21.162;2022-11-15T02:35:37;5.00;99.90
44886;DHT22;36669;51.428;21.162;2022-11-15T02:43:16;5.00;99.90
44886;DHT22;36669;51.428;21.162;2022-11-15T02:45:48;5.00;99.90
44886;DHT22;36669;51.428;21.162;2022-11-15T02:48:16;4.90;99.90
44886;DHT22;36669;51.428;21.162;2022-11-15T02:50:42;4.90;99.90
44886;DHT22;36669;51.428;21.162;2022-11-15T02:53:08;4.90;99.90
44886;DHT22;36669;51.428;21.162;2022-11-15T02:55:41;4.90;99.90
44886;DHT22;36669;51.428;21.162;2022-11-15T03:04:30;5.00;99.90
44886;DHT22;36669;51.428;21.162;2022-11-15T03:07:01;5.00;99.90
44886;DHT22;36669;51.428;21.162;2022-11-15T03:10:10;5.00;99.90
44886;DHT22;36669;51.428;21.162;2022-11-15T03:12:54;4.90;99.90
44886;DHT22;36669;51.428;21.162;2022-11-15T03:15:31;4.90;99.90
44886;DHT22;36669;51.428;21.162;2022-11-15T03:20:24;4.90;99.90
44886;DHT22;36669;51.428;21.162;2022-11-15T03:22:54;4.90;99.90
44886;DHT22;36669;51.428;21.162;2022-11-15T03:25:23;5.00;99.90
44886;DHT22;36669;51.428;21.162;2022-11-15T03:27:52;5.00;99.90
44886;DHT22;36669;51.428;21.162;2022-11-15T03:30:19;5.00;99.90
44886;DHT22;36669;51.428;21.162;2022-11-15T03:32:49;4.90;99.90
44886;DHT22;36669;51.428;21.162;2022-11-15T03:35:24;4.80;99.90
44886;DHT22;36669;51.428;21.162;2022-11-15T03:38:10;4.80;99.90
44886;DHT22;36669;51.428;21.162;2022-11-15T03:40:48;4.80;99.90
44886;DHT22;36669;51.428;21.162;2022-11-15T03:46:13;4.80;99.90
44886;DHT22;36669;51.428;21.162;2022-11-15T03:48:47;4.80;99.90
44886;DHT22;36669;51.428;21.162;2022-11-15T03:51:14;4.80;99.90
44886;DHT22;36669;51.428;21.162;2022-11-15T03:53:40;4.70;99.90
44886;DHT22;36669;51.428;21.162;2022-11-15T03:56:06;4.80;99.90
44886;DHT22;36669;51.428;21.162;2022-11-15T03:58:32;4.80;99.90
44886;DHT22;36669;51.428;21.162;2022-11-15T04:00:57;4.70;99.90
44886;DHT22;36669;51.428;21.162;2022-11-15T04:03:23;4.70;99.90
44886;DHT22;36669;51.428;21.162;2022-11-15T04:05:48;4.70;99.90
44886;DHT22;36669;51.428;21.162;2022-11-15T04:08:14;4.70;99.90
44886;DHT22;36669;51.428;21.162;2022-11-15T04:10:39;4.70;99.90
44886;DHT22;36669;51.428;21.162;2022-11-15T04:13:05;4.80;99.90
44886;DHT22;36669;51.428;21.162;2022-11-15T04:15:30;4.70;99.90
44886;DHT22;36669;51.428;21.162;2022-11-15T04:17:56;4.70;99.90
44886;DHT22;36669;51.428;21.162;2022-11-15T04:20:23;4.60;99.90
44886;DHT22;36669;51.428;21.162;2022-11-15T04:22:52;4.70;99.90
44886;DHT22;36669;51.428;21.162;2022-11-15T04:25:18;4.60;99.90
44886;DHT22;36669;51.428;21.162;2022-11-15T04:27:43;4.60;99.90
44886;DHT22;36669;51.428;21.162;2022-11-15T04:30:09;4.60;99.90
44886;DHT22;36669;51.428;21.162;2022-11-15T04:32:34;4.70;99.90
44886;DHT22;36669;51.428;21.162;2022-11-15T04:35:00;4.60;99.90
44886;DHT22;36669;51.428;21.162;2022-11-15T04:37:25;4.70;99.90
44886;DHT22;36669;51.428;21.162;2022-11-15T04:39:51;4.70;99.90
44886;DHT22;36669;51.428;21.162;2022-11-15T04:42:16;4.70;99.90
44886;DHT22;36669;51.428;21.162;2022-11-15T04:44:42;4.70;99.90
44886;DHT22;36669;51.428;21.162;2022-11-15T04:47:07;4.70;99.90
44886;DHT22;36669;51.428;21.162;2022-11-15T04:49:33;4.60;99.90
44886;DHT22;36669;51.428;21.162;2022-11-15T04:51:59;4.50;99.90
44886;DHT22;36669;51.428;21.162;2022-11-15T04:54:24;4.50;99.90
44886;DHT22;36669;51.428;21.162;2022-11-15T04:56:49;4.50;99.90
44886;DHT22;36669;51.428;21.162;2022-11-15T04:59:15;4.40;99.90
44886;DHT22;36669;51.428;21.162;2022-11-15T05:01:41;4.40;99.90
44886;DHT22;36669;51.428;21.162;2022-11-15T05:04:07;4.40;99.90
44886;DHT22;36669;51.428;21.162;2022-11-15T05:06:32;4.40;99.90
44886;DHT22;36669;51.428;21.162;2022-11-15T05:08:58;4.40;99.90
44886;DHT22;36669;51.428;21.162;2022-11-15T05:11:24;4.40;99.90
44886;DHT22;36669;51.428;21.162;2022-11-15T05:13:49;4.40;99.90
44886;DHT22;36669;51.428;21.162;2022-11-15T05:16:15;4.40;99.90
44886;DHT22;36669;51.428;21.162;2022-11-15T05:18:41;4.40;99.90
44886;DHT22;36669;51.428;21.162;2022-11-15T05:21:13;4.50;99.90
44886;DHT22;36669;51.428;21.162;2022-11-15T05:23:39;4.40;99.90
44886;DHT22;36669;51.428;21.162;2022-11-15T05:26:05;4.40;99.90
44886;DHT22;36669;51.428;21.162;2022-11-15T05:28:32;4.30;99.90
44886;DHT22;36669;51.428;21.162;2022-11-15T05:31:05;4.30;99.90
44886;DHT22;36669;51.428;21.162;2022-11-15T05:33:31;4.30;99.90
44886;DHT22;36669;51.428;21.162;2022-11-15T05:36:04;4.30;99.90
44886;DHT22;36669;51.428;21.162;2022-11-15T05:38:30;4.30;99.90
44886;DHT22;36669;51.428;21.162;2022-11-15T05:40:56;4.30;99.90
44886;DHT22;36669;51.428;21.162;2022-11-15T05:43:22;4.30;99.90
44886;DHT22;36669;51.428;21.162;2022-11-15T05:45:48;4.30;99.90
44886;DHT22;36669;51.428;21.162;2022-11-15T05:48:14;4.30;99.90
44886;DHT22;36669;51.428;21.162;2022-11-15T05:50:43;4.10;99.90
44886;DHT22;36669;51.428;21.162;2022-11-15T05:53:10;4.20;99.90
44886;DHT22;36669;51.428;21.162;2022-11-15T05:55:38;4.30;99.90
44886;DHT22;36669;51.428;21.162;2022-11-15T05:58:04;4.20;99.90
44886;DHT22;36669;51.428;21.162;2022-11-15T06:00:30;4.10;99.90
44886;DHT22;36669;51.428;21.162;2022-11-15T06:02:56;4.20;99.90
44886;DHT22;36669;51.428;21.162;2022-11-15T06:05:21;4.20;99.90
44886;DHT22;36669;51.428;21.162;2022-11-15T06:07:47;4.30;99.90
44886;DHT22;36669;51.428;21.162;2022-11-15T06:10:12;4.30;99.90
44886;DHT22;36669;51.428;21.162;2022-11-15T06:12:38;4.30;99.90
44886;DHT22;36669;51.428;21.162;2022-11-15T06:15:03;4.30;99.90
44886;DHT22;36669;51.428;21.162;2022-11-15T06:17:29;4.20;99.90
44886;DHT22;36669;51.428;21.162;2022-11-15T06:19:54;4.30;99.90
44886;DHT22;36669;51.428;21.162;2022-11-15T06:22:20;4.30;99.90
44886;DHT22;36669;51.428;21.162;2022-11-15T06:24:45;4.30;99.90
44886;DHT22;36669;51.428;21.162;2022-11-15T06:27:11;4.30;99.90
44886;DHT22;36669;51.428;21.162;2022-11-15T06:29:37;4.30;99.90
44886;DHT22;36669;51.428;21.162;2022-11-15T06:32:03;4.30;99.90
44886;DHT22;36669;51.428;21.162;2022-11-15T06:34:28;4.40;99.90
44886;DHT22;36669;51.428;21.162;2022-11-15T06:36:54;4.30;99.90
44886;DHT22;36669;51.428;21.162;2022-11-15T06:39:19;4.30;99.90
44886;DHT22;36669;51.428;21.162;2022-11-15T06:41:45;4.30;99.90
44886;DHT22;36669;51.428;21.162;2022-11-15T06:44:10;4.30;99.90
44886;DHT22;36669;51.428;21.162;2022-11-15T06:46:36;4.30;99.90
44886;DHT22;36669;51.428;21.162;2022-11-15T06:49:01;4.30;99.90
44886;DHT22;36669;51.428;21.162;2022-11-15T06:51:27;4.30;99.90
44886;DHT22;36669;51.428;21.162;2022-11-15T06:53:52;4.40;99.90
44886;DHT22;36669;51.428;21.162;2022-11-15T06:56:18;4.40;99.90
44886;DHT22;36669;51.428;21.162;2022-11-15T06:58:43;4.40;99.90
44886;DHT22;36669;51.428;21.162;2022-11-15T07:01:10;4.40;99.90
44886;DHT22;36669;51.428;21.162;2022-11-15T07:03:41;4.40;99.90
44886;DHT22;36669;51.428;21.162;2022-11-15T07:06:09;4.50;99.90
44886;DHT22;36669;51.428;21.162;2022-11-15T07:08:35;4.50;99.90
44886;DHT22;36669;51.428;21.162;2022-11-15T07:11:03;4.50;99.90
44886;DHT22;36669;51.428;21.162;2022-11-15T07:13:30;4.50;99.90
44886;DHT22;36669;51.428;21.162;2022-11-15T07:15:56;4.60;99.90
44886;DHT22;36669;51.428;21.162;2022-11-15T07:18:21;4.60;99.90
44886;DHT22;36669;51.428;21.162;2022-11-15T07:20:47;4.60;99.90
44886;DHT22;36669;51.428;21.162;2022-11-15T07:23:12;4.60;99.90
44886;DHT22;36669;51.428;21.162;2022-11-15T07:25:38;4.60;99.90
44886;DHT22;36669;51.428;21.162;2022-11-15T07:28:04;4.70;99.90
44886;DHT22;36669;51.428;21.162;2022-11-15T07:30:29;4.70;99.90
44886;DHT22;36669;51.428;21.162;2022-11-15T07:32:56;4.70;99.90
44886;DHT22;36669;51.428;21.162;2022-11-15T07:35:23;4.80;99.90
44886;DHT22;36669;51.428;21.162;2022-11-15T07:37:55;4.80;99.90
44886;DHT22;36669;51.428;21.162;2022-11-15T07:40:21;4.80;99.90
44886;DHT22;36669;51.428;21.162;2022-11-15T07:42:47;4.80;99.90
44886;DHT22;36669;51.428;21.162;2022-11-15T07:45:12;4.80;99.90
44886;DHT22;36669;51.428;21.162;2022-11-15T07:47:38;4.70;99.90
44886;DHT22;36669;51.428;21.162;2022-11-15T07:50:05;4.80;99.90
44886;DHT22;36669;51.428;21.162;2022-11-15T07:52:30;4.80;99.90
44886;DHT22;36669;51.428;21.162;2022-11-15T07:54:56;4.80;99.90
44886;DHT22;36669;51.428;21.162;2022-11-15T07:57:21;4.80;99.90
44886;DHT22;36669;51.428;21.162;2022-11-15T07:59:47;4.80;99.90
44886;DHT22;36669;51.428;21.162;2022-11-15T08:02:12;4.90;99.90
44886;DHT22;36669;51.428;21.162;2022-11-15T08:04:38;5.00;99.90
44886;DHT22;36669;51.428;21.162;2022-11-15T08:07:03;5.10;99.90
44886;DHT22;36669;51.428;21.162;2022-11-15T08:09:29;5.10;99.90
44886;DHT22;36669;51.428;21.162;2022-11-15T08:11:54;5.20;99.90
44886;DHT22;36669;51.428;21.162;2022-11-15T08:14:20;5.20;99.90
44886;DHT22;36669;51.428;21.162;2022-11-15T08:16:45;5.20;99.90
44886;DHT22;36669;51.428;21.162;2022-11-15T08:19:11;5.20;99.90
44886;DHT22;36669;51.428;21.162;2022-11-15T08:21:36;5.30;99.90
44886;DHT22;36669;51.428;21.162;2022-11-15T08:24:02;5.30;99.90
44886;DHT22;36669;51.428;21.162;2022-11-15T08:26:27;5.30;99.90
44886;DHT22;36669;51.428;21.162;2022-11-15T08:28:53;5.40;99.90
44886;DHT22;36669;51.428;21.162;2022-11-15T08:31:18;5.50;99.90
44886;DHT22;36669;51.428;21.162;2022-11-15T08:33:44;5.50;99.90
44886;DHT22;36669;51.428;21.162;2022-11-15T08:36:15;5.60;99.90
44886;DHT22;36669;51.428;21.162;2022-11-15T08:38:41;5.50;99.90
44886;DHT22;36669;51.428;21.162;2022-11-15T08:41:11;5.60;99.90
44886;DHT22;36669;51.428;21.162;2022-11-15T08:43:37;5.70;99.90
44886;DHT22;36669;51.428;21.162;2022-11-15T08:46:03;5.70;99.90
44886;DHT22;36669;51.428;21.162;2022-11-15T08:48:29;5.70;99.90
44886;DHT22;36669;51.428;21.162;2022-11-15T08:50:56;5.80;99.90
44886;DHT22;36669;51.428;21.162;2022-11-15T08:53:23;5.80;99.90
44886;DHT22;36669;51.428;21.162;2022-11-15T08:55:48;5.80;99.90
44886;DHT22;36669;51.428;21.162;2022-11-15T08:58:14;5.70;99.90
44886;DHT22;36669;51.428;21.162;2022-11-15T09:00:39;5.70;99.90
44886;DHT22;36669;51.428;21.162;2022-11-15T09:03:06;5.70;99.90
44886;DHT22;36669;51.428;21.162;2022-11-15T09:05:32;5.80;99.90
44886;DHT22;36669;51.428;21.162;2022-11-15T09:07:57;5.80;99.90
44886;DHT22;36669;51.428;21.162;2022-11-15T09:10:23;5.90;99.90
44886;DHT22;36669;51.428;21.162;2022-11-15T09:12:48;6.00;99.90
44886;DHT22;36669;51.428;21.162;2022-11-15T09:15:15;5.90;99.90
44886;DHT22;36669;51.428;21.162;2022-11-15T09:17:41;6.00;99.90
44886;DHT22;36669;51.428;21.162;2022-11-15T09:20:07;6.00;99.90
44886;DHT22;36669;51.428;21.162;2022-11-15T09:22:33;6.10;99.90
44886;DHT22;36669;51.428;21.162;2022-11-15T09:24:58;6.10;99.90
44886;DHT22;36669;51.428;21.162;2022-11-15T09:27:28;6.20;99.90
44886;DHT22;36669;51.428;21.162;2022-11-15T09:29:54;6.30;99.90
44886;DHT22;36669;51.428;21.162;2022-11-15T09:32:20;6.30;99.90
44886;DHT22;36669;51.428;21.162;2022-11-15T09:34:45;6.40;99.90
44886;DHT22;36669;51.428;21.162;2022-11-15T09:37:12;6.40;99.90
44886;DHT22;36669;51.428;21.162;2022-11-15T09:39:37;6.40;99.90
44886;DHT22;36669;51.428;21.162;2022-11-15T09:48:06;6.80;99.90
44886;DHT22;36669;51.428;21.162;2022-11-15T09:50:46;7.00;99.90
44886;DHT22;36669;51.428;21.162;2022-11-15T09:53:22;7.00;99.90
44886;DHT22;36669;51.428;21.162;2022-11-15T09:56:17;7.00;99.90
44886;DHT22;36669;51.428;21.162;2022-11-15T10:04:15;7.20;99.90
44886;DHT22;36669;51.428;21.162;2022-11-15T10:07:01;7.00;99.90
44886;DHT22;36669;51.428;21.162;2022-11-15T10:09:36;6.80;99.90
44886;DHT22;36669;51.428;21.162;2022-11-15T10:12:03;7.00;99.90
44886;DHT22;36669;51.428;21.162;2022-11-15T10:14:30;7.40;99.90
44886;DHT22;36669;51.428;21.162;2022-11-15T10:17:02;7.80;99.90
44886;DHT22;36669;51.428;21.162;2022-11-15T10:19:39;8.30;99.90
44886;DHT22;36669;51.428;21.162;2022-11-15T10:25:21;8.20;99.90
44886;DHT22;36669;51.428;21.162;2022-11-15T10:27:51;8.10;99.90
44886;DHT22;36669;51.428;21.162;2022-11-15T10:30:18;8.00;99.90
44886;DHT22;36669;51.428;21.162;2022-11-15T10:32:46;8.20;99.90
44886;DHT22;36669;51.428;21.162;2022-11-15T10:35:20;8.20;99.90
44886;DHT22;36669;51.428;21.162;2022-11-15T10:37:46;8.40;99.90
44886;DHT22;36669;51.428;21.162;2022-11-15T10:40:17;8.40;99.90
44886;DHT22;36669;51.428;21.162;2022-11-15T10:42:44;8.60;99.90
44886;DHT22;36669;51.428;21.162;2022-11-15T10:45:30;8.70;99.90
44886;DHT22;36669;51.428;21.162;2022-11-15T10:50:37;9.60;99.90
44886;DHT22;36669;51.428;21.162;2022-11-15T10:53:03;10.00;99.90
44886;DHT22;36669;51.428;21.162;2022-11-15T10:55:31;10.70;99.90
44886;DHT22;36669;51.428;21.162;2022-11-15T10:58:24;11.10;99.90
44886;DHT22;36669;51.428;21.162;2022-11-15T11:00:53;11.30;99.90
44886;DHT22;36669;51.428;21.162;2022-11-15T11:03:29;11.30;99.90
44886;DHT22;36669;51.428;21.162;2022-11-15T11:06:04;11.40;99.90
44886;DHT22;36669;51.428;21.162;2022-11-15T11:08:31;11.70;99.90
44886;DHT22;36669;51.428;21.162;2022-11-15T11:10:59;11.70;99.90
44886;DHT22;36669;51.428;21.162;2022-11-15T11:13:27;11.70;99.90
44886;DHT22;36669;51.428;21.162;2022-11-15T11:16:20;11.70;99.90
44886;DHT22;36669;51.428;21.162;2022-11-15T11:21:26;11.30;99.90
44886;DHT22;36669;51.428;21.162;2022-11-15T11:23:58;11.00;99.90
44886;DHT22;36669;51.428;21.162;2022-11-15T11:26:49;11.20;99.90
44886;DHT22;36669;51.428;21.162;2022-11-15T11:29:30;11.70;99.90
44886;DHT22;36669;51.428;21.162;2022-11-15T11:40:31;12.90;99.90
44886;DHT22;36669;51.428;21.162;2022-11-15T11:46:16;13.60;99.90
44886;DHT22;36669;51.428;21.162;2022-11-15T11:48:46;13.90;99.90
44886;DHT22;36669;51.428;21.162;2022-11-15T11:53:55;13.90;99.90
44886;DHT22;36669;51.428;21.162;2022-11-15T11:58:52;13.80;99.90
44886;DHT22;36669;51.428;21.162;2022-11-15T12:01:58;13.90;99.90
44886;DHT22;36669;51.428;21.162;2022-11-15T12:07:10;14.00;99.90
44886;DHT22;36669;51.428;21.162;2022-11-15T12:15:10;14.10;99.90
44886;DHT22;36669;51.428;21.162;2022-11-15T12:17:40;14.40;99.90
44886;DHT22;36669;51.428;21.162;2022-11-15T12:22:55;14.40;99.90
44886;DHT22;36669;51.428;21.162;2022-11-15T12:28:11;14.20;99.90
44886;DHT22;36669;51.428;21.162;2022-11-15T12:31:37;13.70;99.90
44886;DHT22;36669;51.428;21.162;2022-11-15T12:33:47;13.30;99.90
44886;DHT22;36669;51.428;21.162;2022-11-15T12:39:02;13.20;99.90
44886;DHT22;36669;51.428;21.162;2022-11-15T12:41:33;13.10;99.90
44886;DHT22;36669;51.428;21.162;2022-11-15T12:44:03;13.40;99.90
44886;DHT22;36669;51.428;21.162;2022-11-15T12:49:11;13.70;99.90
44886;DHT22;36669;51.428;21.162;2022-11-15T13:02:20;14.10;99.90
44886;DHT22;36669;51.428;21.162;2022-11-15T13:04:47;14.30;99.90
44886;DHT22;36669;51.428;21.162;2022-11-15T13:10:28;14.10;99.90
44886;DHT22;36669;51.428;21.162;2022-11-15T13:12:48;14.20;99.90
44886;DHT22;36669;51.428;21.162;2022-11-15T13:17:50;14.50;99.90
44886;DHT22;36669;51.428;21.162;2022-11-15T13:28:03;13.90;99.90
44886;DHT22;36669;51.428;21.162;2022-11-15T13:30:35;13.80;99.90
44886;DHT22;36669;51.428;21.162;2022-11-15T13:33:08;13.70;99.90
44886;DHT22;36669;51.428;21.162;2022-11-15T13:35:39;13.60;99.90
44886;DHT22;36669;51.428;21.162;2022-11-15T13:38:06;13.40;99.90
44886;DHT22;36669;51.428;21.162;2022-11-15T13:40:36;13.40;99.90
44886;DHT22;36669;51.428;21.162;2022-11-15T13:48:34;13.10;99.90
44886;DHT22;36669;51.428;21.162;2022-11-15T13:53:46;12.90;99.90
44886;DHT22;36669;51.428;21.162;2022-11-15T13:56:14;12.70;99.90
44886;DHT22;36669;51.428;21.162;2022-11-15T13:58:40;12.40;99.90
44886;DHT22;36669;51.428;21.162;2022-11-15T14:01:06;12.20;99.90
44886;DHT22;36669;51.428;21.162;2022-11-15T14:03:50;12.10;99.90
44886;DHT22;36669;51.428;21.162;2022-11-15T14:06:19;11.90;99.90
44886;DHT22;36669;51.428;21.162;2022-11-15T14:11:25;11.70;99.90
44886;DHT22;36669;51.428;21.162;2022-11-15T14:16:46;11.70;99.90
44886;DHT22;36669;51.428;21.162;2022-11-15T14:22:11;11.60;99.90
44886;DHT22;36669;51.428;21.162;2022-11-15T14:24:38;11.20;99.90
44886;DHT22;36669;51.428;21.162;2022-11-15T14:27:36;10.90;99.90
44886;DHT22;36669;51.428;21.162;2022-11-15T14:30:02;10.50;99.90
44886;DHT22;36669;51.428;21.162;2022-11-15T14:32:43;10.30;99.90
44886;DHT22;36669;51.428;21.162;2022-11-15T14:35:14;10.00;99.90
44886;DHT22;36669;51.428;21.162;2022-11-15T14:37:40;9.70;99.90
44886;DHT22;36669;51.428;21.162;2022-11-15T14:40:06;9.40;99.90
44886;DHT22;36669;51.428;21.162;2022-11-15T14:42:32;9.10;99.90
44886;DHT22;36669;51.428;21.162;2022-11-15T14:44:58;8.90;99.90
44886;DHT22;36669;51.428;21.162;2022-11-15T14:47:23;8.70;99.90
44886;DHT22;36669;51.428;21.162;2022-11-15T14:49:49;8.60;99.90
44886;DHT22;36669;51.428;21.162;2022-11-15T14:52:28;8.40;99.90
44886;DHT22;36669;51.428;21.162;2022-11-15T14:54:55;8.30;99.90
44886;DHT22;36669;51.428;21.162;2022-11-15T14:57:20;8.20;99.90
44886;DHT22;36669;51.428;21.162;2022-11-15T14:59:46;8.10;99.90
44886;DHT22;36669;51.428;21.162;2022-11-15T15:02:26;8.00;99.90
44886;DHT22;36669;51.428;21.162;2022-11-15T15:04:52;7.90;99.90
44886;DHT22;36669;51.428;21.162;2022-11-15T15:07:18;7.70;99.90
44886;DHT22;36669;51.428;21.162;2022-11-15T15:09:44;7.70;99.90
44886;DHT22;36669;51.428;21.162;2022-11-15T15:12:18;7.60;99.90
44886;DHT22;36669;51.428;21.162;2022-11-15T15:14:45;7.50;99.90
44886;DHT22;36669;51.428;21.162;2022-11-15T15:17:11;7.40;99.90
44886;DHT22;36669;51.428;21.162;2022-11-15T15:19:37;7.30;99.90
44886;DHT22;36669;51.428;21.162;2022-11-15T15:22:03;7.20;99.90
44886;DHT22;36669;51.428;21.162;2022-11-15T15:24:28;7.10;99.90
44886;DHT22;36669;51.428;21.162;2022-11-15T15:26:54;7.00;99.90
44886;DHT22;36669;51.428;21.162;2022-11-15T15:29:19;7.00;99.90
44886;DHT22;36669;51.428;21.162;2022-11-15T15:31:46;7.00;99.90
44886;DHT22;36669;51.428;21.162;2022-11-15T15:34:11;6.90;99.90
44886;DHT22;36669;51.428;21.162;2022-11-15T15:36:37;6.70;99.90
44886;DHT22;36669;51.428;21.162;2022-11-15T15:39:02;6.60;99.90
44886;DHT22;36669;51.428;21.162;2022-11-15T15:41:28;6.50;99.90
44886;DHT22;36669;51.428;21.162;2022-11-15T15:43:53;6.30;99.90
44886;DHT22;36669;51.428;21.162;2022-11-15T15:46:19;6.20;99.90
44886;DHT22;36669;51.428;21.162;2022-11-15T15:48:46;6.10;99.90
44886;DHT22;36669;51.428;21.162;2022-11-15T15:51:12;6.00;99.90
44886;DHT22;36669;51.428;21.162;2022-11-15T15:53:38;5.90;99.90
44886;DHT22;36669;51.428;21.162;2022-11-15T15:56:04;5.90;99.90
44886;DHT22;36669;51.428;21.162;2022-11-15T15:58:30;5.80;99.90
44886;DHT22;36669;51.428;21.162;2022-11-15T16:00:55;5.70;99.90
44886;DHT22;36669;51.428;21.162;2022-11-15T16:03:21;5.70;99.90
44886;DHT22;36669;51.428;21.162;2022-11-15T16:05:46;5.60;99.90
44886;DHT22;36669;51.428;21.162;2022-11-15T16:08:19;5.60;99.90
44886;DHT22;36669;51.428;21.162;2022-11-15T16:10:45;5.50;99.90
44886;DHT22;36669;51.428;21.162;2022-11-15T16:13:11;5.40;99.90
44886;DHT22;36669;51.428;21.162;2022-11-15T16:15:36;5.40;99.90
44886;DHT22;36669;51.428;21.162;2022-11-15T16:18:03;5.40;99.90
44886;DHT22;36669;51.428;21.162;2022-11-15T16:20:35;5.30;99.90
44886;DHT22;36669;51.428;21.162;2022-11-15T16:23:03;5.30;99.90
44886;DHT22;36669;51.428;21.162;2022-11-15T16:25:39;5.20;99.90
44886;DHT22;36669;51.428;21.162;2022-11-15T16:31:11;5.20;99.90
44886;DHT22;36669;51.428;21.162;2022-11-15T16:33:38;5.10;99.90
44886;DHT22;36669;51.428;21.162;2022-11-15T16:36:05;5.00;99.90
44886;DHT22;36669;51.428;21.162;2022-11-15T16:38:31;5.00;99.90
44886;DHT22;36669;51.428;21.162;2022-11-15T16:40:57;5.00;99.90
44886;DHT22;36669;51.428;21.162;2022-11-15T16:43:22;5.00;99.90
44886;DHT22;36669;51.428;21.162;2022-11-15T16:45:49;4.90;99.90
44886;DHT22;36669;51.428;21.162;2022-11-15T16:48:21;4.90;99.90
44886;DHT22;36669;51.428;21.162;2022-11-15T16:50:47;4.80;99.90
44886;DHT22;36669;51.428;21.162;2022-11-15T16:53:13;4.70;99.90
44886;DHT22;36669;51.428;21.162;2022-11-15T16:55:38;4.70;99.90
44886;DHT22;36669;51.428;21.162;2022-11-15T16:58:04;4.60;99.90
44886;DHT22;36669;51.428;21.162;2022-11-15T17:00:29;4.50;99.90
44886;DHT22;36669;51.428;21.162;2022-11-15T17:02:55;4.40;99.90
44886;DHT22;36669;51.428;21.162;2022-11-15T17:05:22;4.40;99.90
44886;DHT22;36669;51.428;21.162;2022-11-15T17:07:49;4.40;99.90
44886;DHT22;36669;51.428;21.162;2022-11-15T17:10:15;4.30;99.90
44886;DHT22;36669;51.428;21.162;2022-11-15T17:12:41;4.20;99.90
44886;DHT22;36669;51.428;21.162;2022-11-15T17:15:10;4.20;99.90
44886;DHT22;36669;51.428;21.162;2022-11-15T17:17:37;4.20;99.90
44886;DHT22;36669;51.428;21.162;2022-11-15T17:20:03;4.20;99.90
44886;DHT22;36669;51.428;21.162;2022-11-15T17:22:28;4.20;99.90
44886;DHT22;36669;51.428;21.162;2022-11-15T17:24:54;4.10;99.90
44886;DHT22;36669;51.428;21.162;2022-11-15T17:27:19;4.10;99.90
44886;DHT22;36669;51.428;21.162;2022-11-15T17:29:45;4.10;99.90
44886;DHT22;36669;51.428;21.162;2022-11-15T17:32:10;4.10;99.90
44886;DHT22;36669;51.428;21.162;2022-11-15T17:34:36;4.10;99.90
44886;DHT22;36669;51.428;21.162;2022-11-15T17:37:01;4.00;99.90
44886;DHT22;36669;51.428;21.162;2022-11-15T17:39:27;4.00;99.90
44886;DHT22;36669;51.428;21.162;2022-11-15T17:41:52;4.00;99.90
44886;DHT22;36669;51.428;21.162;2022-11-15T17:44:18;4.00;99.90